Pagrindinis puslapis
METAR-TAF:

METAR-TAF

Oro uostai :

Monte Terminillo, Italija

platuma: 42-28N, ilguma: 012-59E, Aukštis: 1874 m

Dabartinis oras

Ataskaita buvo paskelbta 26 minutes, ne 15:55 UTC
Vėjas 2 kt iš Vakarų/Šiaurės Vakarų
Temperatūra -1°C
Drėgmė 86%
Slėgis 1016 hPa

METAR: LIRK 151555Z AUTO 30002KT //// M01/M03 Q1016

Laikas: 18:21 (16:21 UTC)


TAF: trūkstamas

Orai ataskaitas ir orų prognozės (METAR, TAF).

turimą stotys yra geltonos ir raudonos taškus žemėlapyje.

Perkelti pele per norėdami pamatyti stoties vardą.

Tada spustelėkite, norėdami matyti oro stebėjimo ir prognozės.

Norėdami pakeisti žemėlapį: spustelėkite ant žalios mygtukų su juodo kryžiaus žemyn,; žalią mygtuką su brūkšneliu, jei norite nutolinti; arba žalių rodyklių gretimoms žemėlapius.


METAR-TAF: